PILOTS ONLINE: 228    ATC ONLINE: 36

KSNA

John Wayne Airport-Orange County Airport

Location

IATA SNA
City Santa Ana
Country  United States
Latitude 33° 40' 32" N
Longitude 117° 52' 4" W
Elevation 56 ft
Type Large Airport

Map

Weather

METAR
2014/08/20 08:39
KSNA 200839Z AUTO 10004KT 10SM SCT023 22/15 A2989 RMK AO2 TSNO
TAF
2014/08/20 06:24
TAF KSNA 200520Z 2006/2106 14005KT P6SM OVC018 
     FM201700 21010KT P6SM SCT100 
     FM210300 20005KT P6SM SCT018 
     FM210500 VRB04KT P6SM BKN015

Runways

01L/19R 5700 ft / 150 ft
01R/19L 2887 ft / 75 ft

Outbound flights

Callsign Flying to Pilot ATD/STD ETA Aircraft

Inbound flights

Callsign Flying from Pilot ATD ETA Aircraft